sensor_id;sensor_type;location;lat;lon;timestamp;P1;durP1;ratioP1;P2;durP2;ratioP2
11709;SDS011;5911;51.036;6.972;2023-02-15T00:00:05;29.07;;;20.87;;
11709;SDS011;5911;51.036;6.972;2023-02-15T00:02:40;30.50;;;21.17;;
11709;SDS011;5911;51.036;6.972;2023-02-15T00:05:14;28.13;;;21.07;;
11709;SDS011;5911;51.036;6.972;2023-02-15T00:07:41;29.70;;;20.87;;
11709;SDS011;5911;51.036;6.972;2023-02-15T00:10:11;28.33;;;20.03;;
11709;SDS011;5911;51.036;6.972;2023-02-15T00:12:40;27.67;;;21.20;;
11709;SDS011;5911;51.036;6.972;2023-02-15T00:15:08;30.83;;;20.87;;
11709;SDS011;5911;51.036;6.972;2023-02-15T00:17:37;33.10;;;22.80;;
11709;SDS011;5911;51.036;6.972;2023-02-15T00:20:05;27.87;;;20.40;;
11709;SDS011;5911;51.036;6.972;2023-02-15T00:22:34;29.53;;;21.80;;
11709;SDS011;5911;51.036;6.972;2023-02-15T00:25:02;31.73;;;22.07;;
11709;SDS011;5911;51.036;6.972;2023-02-15T00:27:31;33.17;;;22.43;;
11709;SDS011;5911;51.036;6.972;2023-02-15T00:30:01;29.07;;;20.77;;
11709;SDS011;5911;51.036;6.972;2023-02-15T00:32:30;32.07;;;21.53;;
11709;SDS011;5911;51.036;6.972;2023-02-15T00:34:58;33.23;;;22.80;;
11709;SDS011;5911;51.036;6.972;2023-02-15T00:37:25;34.87;;;22.57;;
11709;SDS011;5911;51.036;6.972;2023-02-15T00:39:53;31.57;;;21.93;;
11709;SDS011;5911;51.036;6.972;2023-02-15T00:42:21;37.03;;;23.47;;
11709;SDS011;5911;51.036;6.972;2023-02-15T00:44:52;37.10;;;23.10;;
11709;SDS011;5911;51.036;6.972;2023-02-15T00:47:20;33.97;;;23.37;;
11709;SDS011;5911;51.036;6.972;2023-02-15T00:49:55;36.30;;;22.73;;
11709;SDS011;5911;51.036;6.972;2023-02-15T00:52:23;34.00;;;22.37;;
11709;SDS011;5911;51.036;6.972;2023-02-15T00:54:51;37.70;;;25.20;;
11709;SDS011;5911;51.036;6.972;2023-02-15T00:57:33;32.57;;;22.77;;
11709;SDS011;5911;51.036;6.972;2023-02-15T01:00:03;33.07;;;22.67;;
11709;SDS011;5911;51.036;6.972;2023-02-15T01:02:31;29.50;;;20.53;;
11709;SDS011;5911;51.036;6.972;2023-02-15T01:05:02;29.03;;;20.13;;
11709;SDS011;5911;51.036;6.972;2023-02-15T01:07:30;28.87;;;20.33;;
11709;SDS011;5911;51.036;6.972;2023-02-15T01:09:58;28.47;;;20.27;;
11709;SDS011;5911;51.036;6.972;2023-02-15T01:12:26;28.27;;;20.97;;
11709;SDS011;5911;51.036;6.972;2023-02-15T01:14:53;31.40;;;22.20;;
11709;SDS011;5911;51.036;6.972;2023-02-15T01:17:25;32.50;;;22.60;;
11709;SDS011;5911;51.036;6.972;2023-02-15T01:19:54;31.80;;;21.40;;
11709;SDS011;5911;51.036;6.972;2023-02-15T01:22:22;32.97;;;22.77;;
11709;SDS011;5911;51.036;6.972;2023-02-15T01:24:49;30.47;;;20.57;;
11709;SDS011;5911;51.036;6.972;2023-02-15T01:27:17;32.40;;;22.27;;
11709;SDS011;5911;51.036;6.972;2023-02-15T01:29:48;34.63;;;22.30;;
11709;SDS011;5911;51.036;6.972;2023-02-15T01:32:16;34.53;;;23.03;;
11709;SDS011;5911;51.036;6.972;2023-02-15T01:34:45;32.03;;;22.33;;
11709;SDS011;5911;51.036;6.972;2023-02-15T01:37:13;32.07;;;22.03;;
11709;SDS011;5911;51.036;6.972;2023-02-15T01:39:44;34.20;;;22.93;;
11709;SDS011;5911;51.036;6.972;2023-02-15T01:42:12;27.87;;;19.43;;
11709;SDS011;5911;51.036;6.972;2023-02-15T01:44:45;34.83;;;22.33;;
11709;SDS011;5911;51.036;6.972;2023-02-15T01:47:23;37.97;;;23.57;;
11709;SDS011;5911;51.036;6.972;2023-02-15T01:49:58;36.90;;;24.20;;
11709;SDS011;5911;51.036;6.972;2023-02-15T01:52:30;37.13;;;24.27;;
11709;SDS011;5911;51.036;6.972;2023-02-15T01:55:00;37.80;;;23.70;;
11709;SDS011;5911;51.036;6.972;2023-02-15T01:57:33;41.30;;;26.23;;
11709;SDS011;5911;51.036;6.972;2023-02-15T02:00:02;41.77;;;25.83;;
11709;SDS011;5911;51.036;6.972;2023-02-15T02:02:38;39.37;;;24.43;;
11709;SDS011;5911;51.036;6.972;2023-02-15T02:05:08;41.70;;;25.20;;
11709;SDS011;5911;51.036;6.972;2023-02-15T02:07:39;43.83;;;26.23;;
11709;SDS011;5911;51.036;6.972;2023-02-15T02:10:10;43.03;;;26.30;;
11709;SDS011;5911;51.036;6.972;2023-02-15T02:12:40;37.73;;;24.70;;
11709;SDS011;5911;51.036;6.972;2023-02-15T02:15:12;39.43;;;25.00;;
11709;SDS011;5911;51.036;6.972;2023-02-15T02:17:42;35.93;;;22.97;;
11709;SDS011;5911;51.036;6.972;2023-02-15T02:20:33;31.90;;;22.57;;
11709;SDS011;5911;51.036;6.972;2023-02-15T02:23:19;35.73;;;23.77;;
11709;SDS011;5911;51.036;6.972;2023-02-15T02:29:15;37.53;;;24.13;;
11709;SDS011;5911;51.036;6.972;2023-02-15T02:35:22;41.67;;;26.20;;
11709;SDS011;5911;51.036;6.972;2023-02-15T02:37:58;45.03;;;26.80;;
11709;SDS011;5911;51.036;6.972;2023-02-15T02:40:50;37.43;;;24.40;;
11709;SDS011;5911;51.036;6.972;2023-02-15T02:43:25;38.40;;;25.10;;
11709;SDS011;5911;51.036;6.972;2023-02-15T02:46:02;40.87;;;24.50;;
11709;SDS011;5911;51.036;6.972;2023-02-15T02:48:36;39.23;;;24.47;;
11709;SDS011;5911;51.036;6.972;2023-02-15T02:51:07;41.17;;;25.87;;
11709;SDS011;5911;51.036;6.972;2023-02-15T02:53:34;45.23;;;27.70;;
11709;SDS011;5911;51.036;6.972;2023-02-15T02:56:06;44.30;;;26.50;;
11709;SDS011;5911;51.036;6.972;2023-02-15T02:58:44;42.50;;;25.23;;
11709;SDS011;5911;51.036;6.972;2023-02-15T03:01:27;44.47;;;27.10;;
11709;SDS011;5911;51.036;6.972;2023-02-15T03:04:05;43.93;;;25.47;;
11709;SDS011;5911;51.036;6.972;2023-02-15T03:06:39;42.87;;;26.83;;
11709;SDS011;5911;51.036;6.972;2023-02-15T03:09:14;40.80;;;24.80;;
11709;SDS011;5911;51.036;6.972;2023-02-15T03:11:48;43.43;;;25.63;;
11709;SDS011;5911;51.036;6.972;2023-02-15T03:14:18;36.37;;;24.27;;
11709;SDS011;5911;51.036;6.972;2023-02-15T03:16:47;32.70;;;22.17;;
11709;SDS011;5911;51.036;6.972;2023-02-15T03:19:17;36.90;;;23.07;;
11709;SDS011;5911;51.036;6.972;2023-02-15T03:21:51;33.93;;;22.37;;
11709;SDS011;5911;51.036;6.972;2023-02-15T03:24:31;34.70;;;22.47;;
11709;SDS011;5911;51.036;6.972;2023-02-15T03:27:04;31.77;;;22.57;;
11709;SDS011;5911;51.036;6.972;2023-02-15T03:29:37;31.97;;;22.43;;
11709;SDS011;5911;51.036;6.972;2023-02-15T03:32:07;35.60;;;24.23;;
11709;SDS011;5911;51.036;6.972;2023-02-15T03:34:38;37.37;;;23.33;;
11709;SDS011;5911;51.036;6.972;2023-02-15T03:37:09;36.37;;;23.30;;
11709;SDS011;5911;51.036;6.972;2023-02-15T03:39:42;37.53;;;23.40;;
11709;SDS011;5911;51.036;6.972;2023-02-15T03:42:19;39.17;;;24.20;;
11709;SDS011;5911;51.036;6.972;2023-02-15T03:44:54;42.60;;;23.73;;
11709;SDS011;5911;51.036;6.972;2023-02-15T03:47:26;39.23;;;24.10;;
11709;SDS011;5911;51.036;6.972;2023-02-15T03:49:57;35.43;;;22.93;;
11709;SDS011;5911;51.036;6.972;2023-02-15T03:52:30;37.00;;;22.63;;
11709;SDS011;5911;51.036;6.972;2023-02-15T03:54:59;33.63;;;22.80;;
11709;SDS011;5911;51.036;6.972;2023-02-15T03:57:28;33.13;;;22.13;;
11709;SDS011;5911;51.036;6.972;2023-02-15T04:00:22;34.60;;;22.27;;
11709;SDS011;5911;51.036;6.972;2023-02-15T04:03:17;31.40;;;20.70;;
11709;SDS011;5911;51.036;6.972;2023-02-15T04:05:51;31.53;;;20.90;;
11709;SDS011;5911;51.036;6.972;2023-02-15T04:08:20;31.37;;;20.00;;
11709;SDS011;5911;51.036;6.972;2023-02-15T04:11:09;30.30;;;21.63;;
11709;SDS011;5911;51.036;6.972;2023-02-15T04:13:36;30.37;;;20.60;;
11709;SDS011;5911;51.036;6.972;2023-02-15T04:16:04;31.73;;;22.10;;
11709;SDS011;5911;51.036;6.972;2023-02-15T04:18:35;29.33;;;21.40;;
11709;SDS011;5911;51.036;6.972;2023-02-15T04:21:22;33.00;;;22.07;;
11709;SDS011;5911;51.036;6.972;2023-02-15T04:24:12;32.23;;;21.83;;
11709;SDS011;5911;51.036;6.972;2023-02-15T04:26:58;32.20;;;21.00;;
11709;SDS011;5911;51.036;6.972;2023-02-15T04:29:27;33.23;;;22.53;;
11709;SDS011;5911;51.036;6.972;2023-02-15T04:31:56;34.90;;;22.23;;
11709;SDS011;5911;51.036;6.972;2023-02-15T04:34:24;34.70;;;22.30;;
11709;SDS011;5911;51.036;6.972;2023-02-15T04:36:52;34.90;;;21.90;;
11709;SDS011;5911;51.036;6.972;2023-02-15T04:39:22;35.50;;;22.43;;
11709;SDS011;5911;51.036;6.972;2023-02-15T04:41:52;33.00;;;21.50;;
11709;SDS011;5911;51.036;6.972;2023-02-15T04:44:20;36.33;;;22.87;;
11709;SDS011;5911;51.036;6.972;2023-02-15T04:46:48;37.27;;;22.60;;
11709;SDS011;5911;51.036;6.972;2023-02-15T04:49:16;36.03;;;23.07;;
11709;SDS011;5911;51.036;6.972;2023-02-15T04:51:44;33.90;;;23.40;;
11709;SDS011;5911;51.036;6.972;2023-02-15T04:54:11;37.77;;;23.17;;
11709;SDS011;5911;51.036;6.972;2023-02-15T04:56:41;38.97;;;23.20;;
11709;SDS011;5911;51.036;6.972;2023-02-15T04:59:09;35.63;;;21.93;;
11709;SDS011;5911;51.036;6.972;2023-02-15T05:01:37;37.97;;;23.13;;
11709;SDS011;5911;51.036;6.972;2023-02-15T05:04:04;35.27;;;22.93;;
11709;SDS011;5911;51.036;6.972;2023-02-15T05:06:34;35.47;;;21.70;;
11709;SDS011;5911;51.036;6.972;2023-02-15T05:09:02;33.43;;;21.30;;
11709;SDS011;5911;51.036;6.972;2023-02-15T05:11:30;37.07;;;22.43;;
11709;SDS011;5911;51.036;6.972;2023-02-15T05:13:59;35.23;;;21.97;;
11709;SDS011;5911;51.036;6.972;2023-02-15T05:16:27;32.50;;;21.50;;
11709;SDS011;5911;51.036;6.972;2023-02-15T05:18:55;33.43;;;21.37;;
11709;SDS011;5911;51.036;6.972;2023-02-15T05:21:23;32.27;;;21.43;;
11709;SDS011;5911;51.036;6.972;2023-02-15T05:23:51;34.00;;;21.60;;
11709;SDS011;5911;51.036;6.972;2023-02-15T05:26:21;32.77;;;20.80;;
11709;SDS011;5911;51.036;6.972;2023-02-15T05:29:09;31.97;;;20.97;;
11709;SDS011;5911;51.036;6.972;2023-02-15T05:31:38;33.83;;;21.67;;
11709;SDS011;5911;51.036;6.972;2023-02-15T05:34:06;32.37;;;20.97;;
11709;SDS011;5911;51.036;6.972;2023-02-15T05:36:34;34.37;;;21.73;;
11709;SDS011;5911;51.036;6.972;2023-02-15T05:39:01;40.43;;;22.50;;
11709;SDS011;5911;51.036;6.972;2023-02-15T05:41:30;36.77;;;21.80;;
11709;SDS011;5911;51.036;6.972;2023-02-15T05:43:58;33.20;;;20.87;;
11709;SDS011;5911;51.036;6.972;2023-02-15T05:46:27;32.63;;;20.97;;
11709;SDS011;5911;51.036;6.972;2023-02-15T05:48:55;29.83;;;20.83;;
11709;SDS011;5911;51.036;6.972;2023-02-15T05:51:23;32.33;;;21.20;;
11709;SDS011;5911;51.036;6.972;2023-02-15T05:53:50;30.97;;;20.53;;
11709;SDS011;5911;51.036;6.972;2023-02-15T05:56:18;32.37;;;20.17;;
11709;SDS011;5911;51.036;6.972;2023-02-15T05:59:11;33.33;;;20.90;;
11709;SDS011;5911;51.036;6.972;2023-02-15T06:01:40;33.47;;;21.37;;
11709;SDS011;5911;51.036;6.972;2023-02-15T06:04:08;34.60;;;21.47;;
11709;SDS011;5911;51.036;6.972;2023-02-15T06:06:36;32.57;;;20.60;;
11709;SDS011;5911;51.036;6.972;2023-02-15T06:09:04;29.07;;;19.60;;
11709;SDS011;5911;51.036;6.972;2023-02-15T06:11:31;32.93;;;20.73;;
11709;SDS011;5911;51.036;6.972;2023-02-15T06:13:59;31.30;;;21.17;;
11709;SDS011;5911;51.036;6.972;2023-02-15T06:16:27;31.50;;;18.67;;
11709;SDS011;5911;51.036;6.972;2023-02-15T06:18:56;35.33;;;21.27;;
11709;SDS011;5911;51.036;6.972;2023-02-15T06:21:25;35.30;;;20.67;;
11709;SDS011;5911;51.036;6.972;2023-02-15T06:23:53;31.50;;;20.50;;
11709;SDS011;5911;51.036;6.972;2023-02-15T06:26:21;32.63;;;20.20;;
11709;SDS011;5911;51.036;6.972;2023-02-15T06:28:54;30.00;;;19.57;;
11709;SDS011;5911;51.036;6.972;2023-02-15T06:31:22;30.47;;;19.63;;
11709;SDS011;5911;51.036;6.972;2023-02-15T06:33:50;35.67;;;21.47;;
11709;SDS011;5911;51.036;6.972;2023-02-15T06:36:20;33.27;;;20.67;;
11709;SDS011;5911;51.036;6.972;2023-02-15T06:38:48;32.83;;;20.20;;
11709;SDS011;5911;51.036;6.972;2023-02-15T06:41:16;35.47;;;21.00;;
11709;SDS011;5911;51.036;6.972;2023-02-15T06:43:43;34.70;;;20.33;;
11709;SDS011;5911;51.036;6.972;2023-02-15T06:46:11;32.90;;;19.60;;
11709;SDS011;5911;51.036;6.972;2023-02-15T06:48:39;31.93;;;20.00;;
11709;SDS011;5911;51.036;6.972;2023-02-15T06:51:07;30.33;;;18.97;;
11709;SDS011;5911;51.036;6.972;2023-02-15T06:53:39;37.13;;;22.07;;
11709;SDS011;5911;51.036;6.972;2023-02-15T06:56:09;27.93;;;18.33;;
11709;SDS011;5911;51.036;6.972;2023-02-15T06:58:38;30.63;;;19.63;;
11709;SDS011;5911;51.036;6.972;2023-02-15T07:01:06;33.83;;;20.20;;
11709;SDS011;5911;51.036;6.972;2023-02-15T07:03:35;27.87;;;19.37;;
11709;SDS011;5911;51.036;6.972;2023-02-15T07:06:03;30.73;;;19.43;;
11709;SDS011;5911;51.036;6.972;2023-02-15T07:08:37;31.40;;;20.53;;
11709;SDS011;5911;51.036;6.972;2023-02-15T07:11:12;31.17;;;18.90;;
11709;SDS011;5911;51.036;6.972;2023-02-15T07:13:59;32.30;;;18.77;;
11709;SDS011;5911;51.036;6.972;2023-02-15T07:16:27;30.53;;;19.40;;
11709;SDS011;5911;51.036;6.972;2023-02-15T07:18:56;34.97;;;20.33;;
11709;SDS011;5911;51.036;6.972;2023-02-15T07:21:24;29.50;;;18.80;;
11709;SDS011;5911;51.036;6.972;2023-02-15T07:23:55;29.37;;;18.47;;
11709;SDS011;5911;51.036;6.972;2023-02-15T07:26:23;29.00;;;19.10;;
11709;SDS011;5911;51.036;6.972;2023-02-15T07:28:51;29.67;;;19.67;;
11709;SDS011;5911;51.036;6.972;2023-02-15T07:31:19;29.10;;;17.77;;
11709;SDS011;5911;51.036;6.972;2023-02-15T07:33:47;28.10;;;18.23;;
11709;SDS011;5911;51.036;6.972;2023-02-15T07:36:14;29.13;;;18.40;;
11709;SDS011;5911;51.036;6.972;2023-02-15T07:38:42;27.77;;;16.80;;
11709;SDS011;5911;51.036;6.972;2023-02-15T07:41:13;26.13;;;17.77;;
11709;SDS011;5911;51.036;6.972;2023-02-15T07:43:42;29.10;;;18.47;;
11709;SDS011;5911;51.036;6.972;2023-02-15T07:46:12;26.37;;;16.80;;
11709;SDS011;5911;51.036;6.972;2023-02-15T07:48:44;24.73;;;15.97;;
11709;SDS011;5911;51.036;6.972;2023-02-15T07:51:12;22.87;;;16.40;;
11709;SDS011;5911;51.036;6.972;2023-02-15T07:53:42;24.27;;;16.57;;
11709;SDS011;5911;51.036;6.972;2023-02-15T07:56:10;21.23;;;14.80;;
11709;SDS011;5911;51.036;6.972;2023-02-15T07:58:40;21.63;;;16.27;;
11709;SDS011;5911;51.036;6.972;2023-02-15T08:01:29;22.70;;;15.57;;
11709;SDS011;5911;51.036;6.972;2023-02-15T08:03:58;22.53;;;16.40;;
11709;SDS011;5911;51.036;6.972;2023-02-15T08:06:27;23.03;;;16.50;;
11709;SDS011;5911;51.036;6.972;2023-02-15T08:08:57;27.30;;;17.60;;
11709;SDS011;5911;51.036;6.972;2023-02-15T08:11:29;25.47;;;16.40;;
11709;SDS011;5911;51.036;6.972;2023-02-15T08:14:00;27.70;;;18.03;;
11709;SDS011;5911;51.036;6.972;2023-02-15T08:16:31;22.70;;;15.70;;
11709;SDS011;5911;51.036;6.972;2023-02-15T08:19:02;25.70;;;17.37;;
11709;SDS011;5911;51.036;6.972;2023-02-15T08:21:34;27.33;;;16.53;;
11709;SDS011;5911;51.036;6.972;2023-02-15T08:24:06;23.77;;;16.83;;
11709;SDS011;5911;51.036;6.972;2023-02-15T08:26:37;22.10;;;15.67;;
11709;SDS011;5911;51.036;6.972;2023-02-15T08:29:07;22.97;;;15.63;;
11709;SDS011;5911;51.036;6.972;2023-02-15T08:31:36;27.77;;;17.03;;
11709;SDS011;5911;51.036;6.972;2023-02-15T08:34:04;25.10;;;16.70;;
11709;SDS011;5911;51.036;6.972;2023-02-15T08:36:32;22.57;;;15.93;;
11709;SDS011;5911;51.036;6.972;2023-02-15T08:39:02;24.00;;;16.17;;
11709;SDS011;5911;51.036;6.972;2023-02-15T08:41:32;24.50;;;18.20;;
11709;SDS011;5911;51.036;6.972;2023-02-15T08:44:03;27.00;;;16.53;;
11709;SDS011;5911;51.036;6.972;2023-02-15T08:46:33;22.83;;;16.20;;
11709;SDS011;5911;51.036;6.972;2023-02-15T08:49:03;26.10;;;16.53;;
11709;SDS011;5911;51.036;6.972;2023-02-15T08:51:32;21.97;;;15.47;;
11709;SDS011;5911;51.036;6.972;2023-02-15T08:54:02;20.80;;;14.37;;
11709;SDS011;5911;51.036;6.972;2023-02-15T08:56:35;20.73;;;14.97;;
11709;SDS011;5911;51.036;6.972;2023-02-15T08:59:06;22.50;;;15.37;;
11709;SDS011;5911;51.036;6.972;2023-02-15T09:01:38;21.27;;;14.37;;
11709;SDS011;5911;51.036;6.972;2023-02-15T09:04:07;21.43;;;15.23;;
11709;SDS011;5911;51.036;6.972;2023-02-15T09:06:36;19.70;;;14.30;;
11709;SDS011;5911;51.036;6.972;2023-02-15T09:09:04;23.20;;;15.07;;
11709;SDS011;5911;51.036;6.972;2023-02-15T09:11:37;24.23;;;16.50;;
11709;SDS011;5911;51.036;6.972;2023-02-15T09:14:09;24.37;;;16.00;;
11709;SDS011;5911;51.036;6.972;2023-02-15T09:16:40;21.00;;;15.20;;
11709;SDS011;5911;51.036;6.972;2023-02-15T09:19:11;21.00;;;14.87;;
11709;SDS011;5911;51.036;6.972;2023-02-15T09:21:39;21.90;;;15.60;;
11709;SDS011;5911;51.036;6.972;2023-02-15T09:24:08;23.43;;;16.20;;
11709;SDS011;5911;51.036;6.972;2023-02-15T09:26:38;21.90;;;15.30;;
11709;SDS011;5911;51.036;6.972;2023-02-15T09:29:09;17.00;;;13.33;;
11709;SDS011;5911;51.036;6.972;2023-02-15T09:31:39;20.87;;;14.83;;
11709;SDS011;5911;51.036;6.972;2023-02-15T09:34:10;22.90;;;15.37;;
11709;SDS011;5911;51.036;6.972;2023-02-15T09:36:39;19.80;;;14.43;;
11709;SDS011;5911;51.036;6.972;2023-02-15T09:39:08;22.90;;;16.13;;
11709;SDS011;5911;51.036;6.972;2023-02-15T09:41:45;22.80;;;15.67;;
11709;SDS011;5911;51.036;6.972;2023-02-15T09:44:36;24.37;;;16.97;;
11709;SDS011;5911;51.036;6.972;2023-02-15T09:47:26;20.17;;;14.93;;
11709;SDS011;5911;51.036;6.972;2023-02-15T09:50:11;22.93;;;16.37;;
11709;SDS011;5911;51.036;6.972;2023-02-15T09:52:48;18.80;;;13.90;;
11709;SDS011;5911;51.036;6.972;2023-02-15T09:55:32;21.33;;;14.47;;
11709;SDS011;5911;51.036;6.972;2023-02-15T09:58:11;21.93;;;13.93;;
11709;SDS011;5911;51.036;6.972;2023-02-15T10:00:50;20.63;;;13.47;;
11709;SDS011;5911;51.036;6.972;2023-02-15T10:03:33;17.20;;;12.20;;
11709;SDS011;5911;51.036;6.972;2023-02-15T10:06:21;17.03;;;13.07;;
11709;SDS011;5911;51.036;6.972;2023-02-15T10:09:02;19.40;;;12.83;;
11709;SDS011;5911;51.036;6.972;2023-02-15T10:11:41;21.37;;;15.23;;
11709;SDS011;5911;51.036;6.972;2023-02-15T10:14:21;18.43;;;13.23;;
11709;SDS011;5911;51.036;6.972;2023-02-15T10:17:12;18.90;;;13.50;;
11709;SDS011;5911;51.036;6.972;2023-02-15T10:19:51;22.17;;;14.67;;
11709;SDS011;5911;51.036;6.972;2023-02-15T10:22:35;19.13;;;13.33;;
11709;SDS011;5911;51.036;6.972;2023-02-15T10:25:21;15.70;;;11.93;;
11709;SDS011;5911;51.036;6.972;2023-02-15T10:27:57;16.03;;;12.13;;
11709;SDS011;5911;51.036;6.972;2023-02-15T10:30:34;17.07;;;12.73;;
11709;SDS011;5911;51.036;6.972;2023-02-15T10:33:14;15.90;;;11.00;;
11709;SDS011;5911;51.036;6.972;2023-02-15T10:35:52;17.43;;;13.00;;
11709;SDS011;5911;51.036;6.972;2023-02-15T10:38:30;16.63;;;12.33;;
11709;SDS011;5911;51.036;6.972;2023-02-15T10:41:08;17.57;;;12.73;;
11709;SDS011;5911;51.036;6.972;2023-02-15T10:43:55;17.60;;;12.77;;
11709;SDS011;5911;51.036;6.972;2023-02-15T10:46:37;20.00;;;13.07;;
11709;SDS011;5911;51.036;6.972;2023-02-15T10:49:23;18.80;;;13.90;;
11709;SDS011;5911;51.036;6.972;2023-02-15T10:52:07;18.27;;;13.00;;
11709;SDS011;5911;51.036;6.972;2023-02-15T10:54:45;15.40;;;11.23;;
11709;SDS011;5911;51.036;6.972;2023-02-15T10:57:26;14.03;;;10.97;;
11709;SDS011;5911;51.036;6.972;2023-02-15T11:00:03;15.07;;;11.37;;
11709;SDS011;5911;51.036;6.972;2023-02-15T11:02:41;17.27;;;13.73;;
11709;SDS011;5911;51.036;6.972;2023-02-15T11:05:29;15.43;;;12.00;;
11709;SDS011;5911;51.036;6.972;2023-02-15T11:08:16;15.73;;;12.70;;
11709;SDS011;5911;51.036;6.972;2023-02-15T11:10:47;16.87;;;13.13;;
11709;SDS011;5911;51.036;6.972;2023-02-15T11:13:19;18.13;;;12.80;;
11709;SDS011;5911;51.036;6.972;2023-02-15T11:15:50;18.10;;;12.80;;
11709;SDS011;5911;51.036;6.972;2023-02-15T11:18:23;17.00;;;12.80;;
11709;SDS011;5911;51.036;6.972;2023-02-15T11:20:58;18.20;;;13.33;;
11709;SDS011;5911;51.036;6.972;2023-02-15T11:23:29;15.80;;;12.03;;
11709;SDS011;5911;51.036;6.972;2023-02-15T11:26:02;16.97;;;12.23;;
11709;SDS011;5911;51.036;6.972;2023-02-15T11:28:33;15.50;;;11.53;;
11709;SDS011;5911;51.036;6.972;2023-02-15T11:31:10;14.73;;;10.93;;
11709;SDS011;5911;51.036;6.972;2023-02-15T11:33:42;16.37;;;10.73;;
11709;SDS011;5911;51.036;6.972;2023-02-15T11:36:15;13.13;;;10.30;;
11709;SDS011;5911;51.036;6.972;2023-02-15T11:38:48;15.57;;;11.00;;
11709;SDS011;5911;51.036;6.972;2023-02-15T11:41:21;18.50;;;11.60;;
11709;SDS011;5911;51.036;6.972;2023-02-15T11:43:53;14.03;;;10.43;;
11709;SDS011;5911;51.036;6.972;2023-02-15T11:46:25;15.70;;;11.80;;
11709;SDS011;5911;51.036;6.972;2023-02-15T11:48:53;15.53;;;12.17;;
11709;SDS011;5911;51.036;6.972;2023-02-15T11:51:22;13.67;;;10.90;;
11709;SDS011;5911;51.036;6.972;2023-02-15T11:53:50;13.87;;;11.37;;
11709;SDS011;5911;51.036;6.972;2023-02-15T11:56:20;13.00;;;10.80;;
11709;SDS011;5911;51.036;6.972;2023-02-15T11:58:51;15.17;;;11.13;;
11709;SDS011;5911;51.036;6.972;2023-02-15T12:01:24;17.30;;;12.50;;
11709;SDS011;5911;51.036;6.972;2023-02-15T12:03:58;16.20;;;12.03;;
11709;SDS011;5911;51.036;6.972;2023-02-15T12:06:32;18.17;;;12.18;;
11709;SDS011;5911;51.036;6.972;2023-02-15T12:09:03;13.93;;;10.20;;
11709;SDS011;5911;51.036;6.972;2023-02-15T12:11:35;14.17;;;10.80;;
11709;SDS011;5911;51.036;6.972;2023-02-15T12:14:04;15.10;;;11.33;;
11709;SDS011;5911;51.036;6.972;2023-02-15T12:16:34;14.63;;;11.18;;
11709;SDS011;5911;51.036;6.972;2023-02-15T12:19:16;14.17;;;12.03;;
11709;SDS011;5911;51.036;6.972;2023-02-15T12:21:56;14.50;;;12.00;;
11709;SDS011;5911;51.036;6.972;2023-02-15T12:24:26;14.40;;;10.70;;
11709;SDS011;5911;51.036;6.972;2023-02-15T12:26:58;16.23;;;11.60;;
11709;SDS011;5911;51.036;6.972;2023-02-15T12:29:29;15.63;;;11.65;;
11709;SDS011;5911;51.036;6.972;2023-02-15T12:31:59;13.40;;;10.50;;
11709;SDS011;5911;51.036;6.972;2023-02-15T12:34:29;15.90;;;11.77;;
11709;SDS011;5911;51.036;6.972;2023-02-15T12:37:01;17.17;;;11.70;;
11709;SDS011;5911;51.036;6.972;2023-02-15T12:39:37;19.27;;;11.70;;
11709;SDS011;5911;51.036;6.972;2023-02-15T12:42:19;16.48;;;12.63;;
11709;SDS011;5911;51.036;6.972;2023-02-15T12:44:58;15.55;;;12.20;;
11709;SDS011;5911;51.036;6.972;2023-02-15T12:47:28;14.23;;;10.90;;
11709;SDS011;5911;51.036;6.972;2023-02-15T12:50:04;14.93;;;10.95;;
11709;SDS011;5911;51.036;6.972;2023-02-15T12:52:39;17.15;;;11.75;;
11709;SDS011;5911;51.036;6.972;2023-02-15T12:55:10;14.25;;;10.93;;
11709;SDS011;5911;51.036;6.972;2023-02-15T12:57:45;13.70;;;10.85;;
11709;SDS011;5911;51.036;6.972;2023-02-15T13:00:26;15.65;;;12.13;;
11709;SDS011;5911;51.036;6.972;2023-02-15T13:02:59;16.30;;;10.98;;
11709;SDS011;5911;51.036;6.972;2023-02-15T13:05:30;18.33;;;11.80;;
11709;SDS011;5911;51.036;6.972;2023-02-15T13:08:03;19.13;;;12.70;;
11709;SDS011;5911;51.036;6.972;2023-02-15T13:10:39;17.95;;;12.07;;
11709;SDS011;5911;51.036;6.972;2023-02-15T13:13:10;17.13;;;11.45;;
11709;SDS011;5911;51.036;6.972;2023-02-15T13:15:44;14.98;;;11.00;;
11709;SDS011;5911;51.036;6.972;2023-02-15T13:18:16;15.90;;;11.82;;
11709;SDS011;5911;51.036;6.972;2023-02-15T13:20:47;14.25;;;10.98;;
11709;SDS011;5911;51.036;6.972;2023-02-15T13:23:22;15.98;;;11.73;;
11709;SDS011;5911;51.036;6.972;2023-02-15T13:25:55;19.00;;;12.18;;
11709;SDS011;5911;51.036;6.972;2023-02-15T13:28:26;17.27;;;12.18;;
11709;SDS011;5911;51.036;6.972;2023-02-15T13:31:02;14.55;;;11.07;;
11709;SDS011;5911;51.036;6.972;2023-02-15T13:33:31;15.85;;;10.75;;
11709;SDS011;5911;51.036;6.972;2023-02-15T13:36:04;14.30;;;10.82;;
11709;SDS011;5911;51.036;6.972;2023-02-15T13:38:43;17.95;;;12.05;;
11709;SDS011;5911;51.036;6.972;2023-02-15T13:41:17;15.25;;;10.70;;
11709;SDS011;5911;51.036;6.972;2023-02-15T13:43:56;14.40;;;10.77;;
11709;SDS011;5911;51.036;6.972;2023-02-15T13:46:35;16.38;;;11.88;;
11709;SDS011;5911;51.036;6.972;2023-02-15T13:49:14;18.55;;;12.23;;
11709;SDS011;5911;51.036;6.972;2023-02-15T13:51:51;13.55;;;9.90;;
11709;SDS011;5911;51.036;6.972;2023-02-15T13:54:31;16.75;;;10.38;;
11709;SDS011;5911;51.036;6.972;2023-02-15T13:57:08;12.02;;;10.10;;
11709;SDS011;5911;51.036;6.972;2023-02-15T13:59:58;14.38;;;10.50;;
11709;SDS011;5911;51.036;6.972;2023-02-15T14:05:39;15.48;;;10.48;;
11709;SDS011;5911;51.036;6.972;2023-02-15T14:08:18;13.50;;;10.43;;
11709;SDS011;5911;51.036;6.972;2023-02-15T14:11:02;14.05;;;11.23;;
11709;SDS011;5911;51.036;6.972;2023-02-15T14:13:42;13.60;;;10.43;;
11709;SDS011;5911;51.036;6.972;2023-02-15T14:16:23;14.25;;;10.07;;
11709;SDS011;5911;51.036;6.972;2023-02-15T14:19:02;14.82;;;10.45;;
11709;SDS011;5911;51.036;6.972;2023-02-15T14:21:39;15.55;;;11.52;;
11709;SDS011;5911;51.036;6.972;2023-02-15T14:24:16;16.15;;;11.40;;
11709;SDS011;5911;51.036;6.972;2023-02-15T14:26:55;15.55;;;11.43;;
11709;SDS011;5911;51.036;6.972;2023-02-15T14:29:46;15.00;;;11.43;;
11709;SDS011;5911;51.036;6.972;2023-02-15T14:32:21;15.43;;;11.10;;
11709;SDS011;5911;51.036;6.972;2023-02-15T14:34:56;14.10;;;11.30;;
11709;SDS011;5911;51.036;6.972;2023-02-15T14:37:28;14.32;;;10.98;;
11709;SDS011;5911;51.036;6.972;2023-02-15T14:40:08;12.85;;;10.30;;
11709;SDS011;5911;51.036;6.972;2023-02-15T14:43:05;17.48;;;11.80;;
11709;SDS011;5911;51.036;6.972;2023-02-15T14:45:40;17.08;;;11.50;;
11709;SDS011;5911;51.036;6.972;2023-02-15T14:48:24;14.85;;;11.05;;
11709;SDS011;5911;51.036;6.972;2023-02-15T14:50:58;14.80;;;10.32;;
11709;SDS011;5911;51.036;6.972;2023-02-15T14:53:35;13.60;;;11.45;;
11709;SDS011;5911;51.036;6.972;2023-02-15T14:56:05;14.10;;;10.50;;
11709;SDS011;5911;51.036;6.972;2023-02-15T14:58:55;15.98;;;10.13;;
11709;SDS011;5911;51.036;6.972;2023-02-15T15:01:27;15.55;;;10.48;;
11709;SDS011;5911;51.036;6.972;2023-02-15T15:03:57;15.10;;;10.43;;
11709;SDS011;5911;51.036;6.972;2023-02-15T15:06:29;16.08;;;11.23;;
11709;SDS011;5911;51.036;6.972;2023-02-15T15:09:00;14.38;;;11.45;;
11709;SDS011;5911;51.036;6.972;2023-02-15T15:11:39;14.05;;;11.38;;
11709;SDS011;5911;51.036;6.972;2023-02-15T15:17:09;15.13;;;11.07;;
11709;SDS011;5911;51.036;6.972;2023-02-15T15:19:58;15.15;;;11.25;;